Nottely Observed Data For Previous 48 Hours

Caption
Day and Hour Reservoir Elevation (behind dam)* Tailwater Elevation (below dam)* Average Hourly Discharge*
12/16/2018 2 AM EST 1,763.02 1,607.17 152
12/16/2018 3 AM EST 1,763.04 1,607.17 63
12/16/2018 4 AM EST 1,763.05 1,607.17 62
12/16/2018 5 AM EST 1,763.07 1,607.17 63
12/16/2018 6 AM EST 1,763.08 1,607.17 62
12/16/2018 7 AM EST 1,763.09 1,610.78 171
12/16/2018 8 AM EST 1,763.08 1,611.16 1,349
12/16/2018 9 AM EST 1,763.06 1,611.14 1,354
12/16/2018 10 AM EST 1,763.04 1,611.12 1,353
12/16/2018 11 AM EST 1,763.02 1,611.15 1,350
12/16/2018 12 PM EST 1,762.99 1,611.15 1,350
12/16/2018 1 PM EST 1,762.98 1,611.14 1,349
12/16/2018 2 PM EST 1,762.98 1,607.17 147
12/16/2018 3 PM EST 1,762.99 1,607.17 62
12/16/2018 4 PM EST 1,763.01 1,607.17 63
12/16/2018 5 PM EST 1,763.02 1,610.90 181
12/16/2018 6 PM EST 1,763.01 1,611.15 1,353
12/16/2018 7 PM EST 1,762.98 1,611.19 1,357
12/16/2018 8 PM EST 1,762.96 1,611.16 1,373
12/16/2018 9 PM EST 1,762.94 1,611.14 1,369
12/16/2018 10 PM EST 1,762.92 1,611.17 1,375
12/16/2018 11 PM EST 1,762.90 1,611.15 1,370
12/17/2018 12 AM EST 1,762.88 1,611.20 1,371
12/17/2018 1 AM EST 1,762.86 1,611.20 1,370
12/17/2018 2 AM EST 1,762.83 1,611.14 1,373
12/17/2018 3 AM EST 1,762.81 1,611.13 1,373
12/17/2018 4 AM EST 1,762.79 1,611.17 1,360
12/17/2018 5 AM EST 1,762.77 1,611.19 1,361
12/17/2018 6 AM EST 1,762.75 1,611.19 1,357
12/17/2018 7 AM EST 1,762.72 1,611.20 1,364
12/17/2018 8 AM EST 1,762.70 1,611.13 1,357
12/17/2018 9 AM EST 1,762.68 1,611.13 1,357
12/17/2018 10 AM EST 1,762.65 1,611.18 1,358
12/17/2018 11 AM EST 1,762.64 1,611.17 1,358
12/17/2018 12 PM EST 1,762.60 1,611.14 1,352
12/17/2018 1 PM EST 1,762.58 1,611.14 1,355
12/17/2018 2 PM EST 1,762.56 1,611.10 1,352
12/17/2018 3 PM EST 1,762.54 1,611.16 1,355
12/17/2018 4 PM EST 1,762.51 1,611.15 1,356
12/17/2018 5 PM EST 1,762.49 1,611.15 1,357
12/17/2018 6 PM EST 1,762.47 1,611.17 1,355
12/17/2018 7 PM EST 1,762.45 1,611.17 1,355
12/17/2018 8 PM EST 1,762.43 1,611.15 1,355
12/17/2018 9 PM EST 1,762.40 1,611.17 1,358
12/17/2018 10 PM EST 1,762.38 1,611.13 1,358
12/17/2018 11 PM EST 1,762.36 1,611.14 1,354
12/18/2018 12 AM EST 1,762.34 1,611.13 1,356
12/18/2018 1 AM EST 1,762.31 1,611.15 1,354
12/18/2018 2 AM EST 1,762.32 1,607.17 193
12/18/2018 3 AM EST 1,762.33 1,607.16 62
12/18/2018 4 AM EST 1,762.34 1,607.17 63
12/18/2018 5 AM EST 1,762.35 1,607.17 62
12/18/2018 6 AM EST 1,762.36 1,610.82 180
12/18/2018 7 AM EST 1,762.34 1,611.16 1,354

Elevations are in feet above sea level. Discharges are in cubic feet per second and are reported at the end of the hour.